createdAt,value
2022-09-28T00:01:17.118Z,13.06
2022-09-28T00:03:46.963Z,13.23
2022-09-28T00:06:18.628Z,13.35
2022-09-28T00:08:46.529Z,13.97
2022-09-28T00:11:16.201Z,13.33
2022-09-28T00:13:44.662Z,13.09
2022-09-28T00:16:14.980Z,13.30
2022-09-28T00:18:43.156Z,12.97
2022-09-28T00:21:14.780Z,13.33
2022-09-28T00:23:56.798Z,13.96
2022-09-28T00:26:25.586Z,13.23
2022-09-28T00:28:54.276Z,12.97
2022-09-28T00:31:23.820Z,13.04
2022-09-28T00:33:53.005Z,12.88
2022-09-28T00:36:28.267Z,13.16
2022-09-28T00:39:05.420Z,13.23
2022-09-28T00:41:34.105Z,12.93
2022-09-28T00:44:43.259Z,13.52
2022-09-28T00:47:34.869Z,13.40
2022-09-28T00:50:03.902Z,13.63
2022-09-28T00:52:38.655Z,13.09
2022-09-28T00:55:12.763Z,12.86
2022-09-28T00:57:49.922Z,13.15
2022-09-28T01:00:19.397Z,12.89
2022-09-28T01:02:49.182Z,12.95
2022-09-28T01:05:25.351Z,13.01
2022-09-28T01:07:57.490Z,13.04
2022-09-28T01:10:25.686Z,12.49
2022-09-28T01:12:53.779Z,12.67
2022-09-28T01:15:22.917Z,13.04
2022-09-28T01:17:58.541Z,13.41
2022-09-28T01:20:51.271Z,13.81
2022-09-28T01:23:42.579Z,13.56
2022-09-28T01:26:19.682Z,13.86
2022-09-28T01:28:49.416Z,13.29
2022-09-28T01:31:19.223Z,13.27
2022-09-28T01:33:49.872Z,13.21
2022-09-28T01:36:22.405Z,13.02
2022-09-28T01:38:52.774Z,13.20
2022-09-28T01:41:23.917Z,13.47
2022-09-28T01:43:56.226Z,13.56
2022-09-28T01:46:28.257Z,13.34
2022-09-28T01:48:58.492Z,13.27
2022-09-28T01:51:33.576Z,13.30
2022-09-28T01:54:14.277Z,12.99
2022-09-28T01:56:46.623Z,13.19
2022-09-28T01:59:16.671Z,12.92
2022-09-28T02:01:48.491Z,13.04
2022-09-28T02:04:19.875Z,12.99
2022-09-28T02:06:50.545Z,12.69
2022-09-28T02:09:23.027Z,12.86
2022-09-28T02:11:56.224Z,12.61
2022-09-28T02:14:25.371Z,12.12
2022-09-28T02:16:55.184Z,12.06
2022-09-28T02:19:25.935Z,12.10
2022-09-28T02:21:59.047Z,12.17
2022-09-28T02:24:37.104Z,11.99
2022-09-28T02:27:10.849Z,12.00
2022-09-28T02:29:38.864Z,11.36
2022-09-28T02:32:07.176Z,11.32
2022-09-28T02:34:36.732Z,11.75
2022-09-28T02:37:05.095Z,11.41
2022-09-28T02:39:33.648Z,11.40
2022-09-28T02:42:12.103Z,12.04
2022-09-28T02:44:54.798Z,12.05
2022-09-28T02:47:30.412Z,11.94
2022-09-28T02:50:04.540Z,11.81
2022-09-28T02:52:44.248Z,12.04
2022-09-28T02:55:21.880Z,11.88
2022-09-28T02:58:04.699Z,11.73
2022-09-28T03:00:34.240Z,11.40
2022-09-28T03:03:05.640Z,11.42
2022-09-28T03:05:40.052Z,11.51
2022-09-28T03:08:12.350Z,11.36
2022-09-28T03:10:44.570Z,11.28
2022-09-28T03:13:14.660Z,11.07
2022-09-28T03:15:48.631Z,10.80
2022-09-28T03:18:17.552Z,10.67
2022-09-28T03:20:45.919Z,10.60
2022-09-28T03:23:24.689Z,10.54
2022-09-28T03:25:53.849Z,10.39
2022-09-28T03:28:23.373Z,10.64
2022-09-28T03:30:51.675Z,10.27
2022-09-28T03:33:20.366Z,10.22
2022-09-28T03:35:49.629Z,10.40
2022-09-28T03:38:18.375Z,10.30
2022-09-28T03:40:47.031Z,10.32
2022-09-28T03:43:15.154Z,10.33
2022-09-28T03:45:44.682Z,10.66
2022-09-28T03:48:14.836Z,10.31
2022-09-28T03:50:42.967Z,10.31
2022-09-28T03:53:11.172Z,10.23
2022-09-28T03:55:39.470Z,10.16
2022-09-28T03:58:07.691Z,10.07
2022-09-28T04:00:35.886Z,10.10
2022-09-28T04:03:06.129Z,10.37
2022-09-28T04:05:34.274Z,10.07
2022-09-28T04:08:02.670Z,10.19
2022-09-28T04:10:31.227Z,10.00
2022-09-28T04:12:59.839Z,10.01
2022-09-28T04:15:27.845Z,10.00
2022-09-28T04:17:56.174Z,9.95
2022-09-28T04:20:25.825Z,10.29
2022-09-28T04:22:54.177Z,9.79
2022-09-28T04:25:22.428Z,9.86
2022-09-28T04:28:19.384Z,9.94
2022-09-28T04:30:47.903Z,10.05
2022-09-28T04:33:16.235Z,9.90
2022-09-28T04:35:47.215Z,10.24
2022-09-28T04:38:15.583Z,10.02
2022-09-28T04:40:43.903Z,9.86
2022-09-28T04:43:11.946Z,9.95
2022-09-28T04:45:40.184Z,9.91
2022-09-28T04:48:08.707Z,10.00
2022-09-28T04:50:36.798Z,10.05
2022-09-28T04:53:06.743Z,10.53
2022-09-28T04:55:34.815Z,10.18
2022-09-28T04:58:05.269Z,10.86
2022-09-28T05:00:36.035Z,10.77
2022-09-28T05:03:04.289Z,11.35
2022-09-28T05:05:32.365Z,11.78
2022-09-28T05:08:00.895Z,11.93
2022-09-28T05:10:30.342Z,12.28
2022-09-28T05:12:58.458Z,11.84
2022-09-28T05:15:26.698Z,11.76
2022-09-28T05:17:54.825Z,11.78
2022-09-28T05:20:23.065Z,11.72
2022-09-28T05:22:51.447Z,11.74
2022-09-28T05:25:19.839Z,11.69
2022-09-28T05:27:49.543Z,11.87
2022-09-28T05:30:19.076Z,11.52
2022-09-28T05:32:47.402Z,11.53
2022-09-28T05:35:15.419Z,12.18
2022-09-28T05:37:43.954Z,12.59
2022-09-28T05:40:12.791Z,12.48
2022-09-28T05:42:41.031Z,12.13
2022-09-28T05:45:11.505Z,12.32
2022-09-28T05:47:40.816Z,11.92
2022-09-28T05:50:12.001Z,12.13
2022-09-28T05:52:40.371Z,12.64
2022-09-28T05:55:09.465Z,13.90
2022-09-28T05:57:37.619Z,14.67
2022-09-28T06:00:08.132Z,15.63
2022-09-28T06:02:37.967Z,16.76
2022-09-28T06:05:07.527Z,17.27
2022-09-28T06:07:35.640Z,17.35
2022-09-28T06:10:03.649Z,16.78
2022-09-28T06:12:31.945Z,15.87
2022-09-28T06:15:00.833Z,15.29
2022-09-28T06:17:29.514Z,14.59
2022-09-28T06:19:59.306Z,14.48
2022-09-28T06:22:27.456Z,14.12
2022-09-28T06:24:55.653Z,14.60
2022-09-28T06:27:23.986Z,16.20
2022-09-28T06:29:52.214Z,17.44
2022-09-28T06:32:20.229Z,18.25
2022-09-28T06:34:50.744Z,18.87
2022-09-28T06:37:23.577Z,19.86
2022-09-28T06:39:52.215Z,19.47
2022-09-28T06:42:20.234Z,19.73
2022-09-28T06:44:48.362Z,20.20
2022-09-28T06:47:17.784Z,20.77
2022-09-28T06:49:51.488Z,21.22
2022-09-28T06:52:19.941Z,21.98
2022-09-28T06:54:49.537Z,21.93
2022-09-28T06:57:17.849Z,21.22
2022-09-28T06:59:46.159Z,21.26
2022-09-28T07:02:14.916Z,20.97
2022-09-28T07:04:43.429Z,20.62
2022-09-28T07:07:11.791Z,20.65
2022-09-28T07:09:44.944Z,21.32
2022-09-28T07:12:17.836Z,22.55
2022-09-28T07:14:48.226Z,22.92
2022-09-28T07:17:16.935Z,23.29
2022-09-28T07:19:45.329Z,24.05
2022-09-28T07:22:18.811Z,24.11
2022-09-28T07:24:49.081Z,23.85
2022-09-28T07:27:20.160Z,24.45
2022-09-28T07:29:48.242Z,24.67
2022-09-28T07:32:16.512Z,25.21
2022-09-28T07:34:44.771Z,26.07
2022-09-28T07:37:13.467Z,26.75
2022-09-28T07:39:59.709Z,27.05
2022-09-28T07:42:30.194Z,27.10
2022-09-28T07:44:59.269Z,26.63
2022-09-28T07:47:33.889Z,26.66
2022-09-28T07:50:03.365Z,25.67
2022-09-28T07:52:31.552Z,24.97
2022-09-28T07:55:03.329Z,24.98
2022-09-28T07:57:36.441Z,25.31
2022-09-28T08:00:07.251Z,25.09
2022-09-28T08:02:35.905Z,25.29
2022-09-28T08:05:04.365Z,25.59
2022-09-28T08:07:34.530Z,26.08
2022-09-28T08:10:02.920Z,28.04
2022-09-28T08:12:31.078Z,29.17
2022-09-28T08:15:01.389Z,30.24
2022-09-28T08:17:29.728Z,31.21
2022-09-28T08:20:15.297Z,32.19
2022-09-28T08:22:43.573Z,33.30
2022-09-28T08:25:11.928Z,33.36
2022-09-28T08:27:40.046Z,33.11
2022-09-28T08:30:11.348Z,34.17
2022-09-28T08:32:39.567Z,33.37
2022-09-28T08:35:08.223Z,31.32
2022-09-28T08:37:36.571Z,28.52
2022-09-28T08:40:05.307Z,26.52
2022-09-28T08:42:36.185Z,27.68
2022-09-28T08:45:07.699Z,30.90
2022-09-28T08:47:59.028Z,32.42
2022-09-28T08:50:28.684Z,33.68
2022-09-28T08:53:00.725Z,35.15
2022-09-28T08:55:32.304Z,36.15
2022-09-28T08:58:03.051Z,36.48
2022-09-28T09:00:35.361Z,36.39
2022-09-28T09:03:07.252Z,34.51
2022-09-28T09:05:48.769Z,32.11
2022-09-28T09:08:42.331Z,31.55
2022-09-28T09:11:17.233Z,32.22
2022-09-28T09:14:14.946Z,32.13
2022-09-28T09:17:00.001Z,31.82
2022-09-28T09:19:36.827Z,31.49
2022-09-28T09:22:12.705Z,29.29
2022-09-28T09:24:48.977Z,28.40
2022-09-28T09:27:32.841Z,29.51
2022-09-28T09:30:06.305Z,30.18
2022-09-28T09:32:45.181Z,28.84
2022-09-28T09:35:32.074Z,30.12
2022-09-28T09:38:10.812Z,32.24
2022-09-28T09:40:58.843Z,33.85
2022-09-28T09:44:01.246Z,31.98
2022-09-28T09:46:35.544Z,28.69
2022-09-28T09:49:08.760Z,26.53
2022-09-28T09:51:44.226Z,25.19
2022-09-28T09:54:17.880Z,25.17
2022-09-28T09:56:50.217Z,28.49
2022-09-28T09:59:21.252Z,30.70
2022-09-28T10:01:49.786Z,32.41
2022-09-28T10:04:22.489Z,35.19
2022-09-28T10:06:54.055Z,36.18
2022-09-28T10:09:26.134Z,36.45
2022-09-28T10:11:54.749Z,36.38
2022-09-28T10:14:25.115Z,35.01
2022-09-28T10:16:54.399Z,34.38
2022-09-28T10:19:29.655Z,35.08
2022-09-28T10:22:02.680Z,35.41
2022-09-28T10:24:32.663Z,35.46
2022-09-28T10:27:05.986Z,36.19
2022-09-28T10:29:41.885Z,36.32
2022-09-28T10:32:20.632Z,36.54
2022-09-28T10:34:50.978Z,35.79
2022-09-28T10:37:20.914Z,34.73
2022-09-28T10:39:53.349Z,32.49
2022-09-28T10:42:23.959Z,31.00
2022-09-28T10:44:55.638Z,29.95
2022-09-28T10:47:25.465Z,30.48
2022-09-28T10:49:55.451Z,32.73
2022-09-28T10:52:38.892Z,34.80
2022-09-28T10:55:32.452Z,36.16
2022-09-28T10:58:01.185Z,36.07
2022-09-28T11:00:33.185Z,36.11
2022-09-28T11:03:01.515Z,35.64
2022-09-28T11:05:30.464Z,34.59
2022-09-28T11:08:01.766Z,32.75
2022-09-28T11:10:31.493Z,32.59
2022-09-28T11:13:01.008Z,33.51
2022-09-28T11:15:31.110Z,33.09
2022-09-28T11:18:19.509Z,32.56
2022-09-28T11:20:49.431Z,32.16
2022-09-28T11:23:21.956Z,32.03
2022-09-28T11:26:01.356Z,30.57
2022-09-28T11:28:33.299Z,28.46
2022-09-28T11:31:02.798Z,26.59
2022-09-28T11:33:34.228Z,25.88
2022-09-28T11:36:20.158Z,25.52
2022-09-28T11:38:55.373Z,25.21
2022-09-28T11:41:38.443Z,24.66
2022-09-28T11:44:22.904Z,23.61
2022-09-28T11:46:58.347Z,23.03
2022-09-28T11:49:32.702Z,23.12
2022-09-28T11:52:03.763Z,23.11
2022-09-28T11:54:40.100Z,23.21
2022-09-28T11:57:14.035Z,22.54
2022-09-28T11:59:51.541Z,21.83
2022-09-28T12:02:23.460Z,21.73
2022-09-28T12:04:55.408Z,21.77
2022-09-28T12:07:27.602Z,21.87
2022-09-28T12:10:00.055Z,22.15
2022-09-28T12:12:32.915Z,22.16
2022-09-28T12:15:04.717Z,22.23
2022-09-28T12:17:37.778Z,22.41
2022-09-28T12:20:14.133Z,22.61
2022-09-28T12:22:47.352Z,22.57
2022-09-28T12:25:20.962Z,22.88
2022-09-28T12:27:52.079Z,22.54
2022-09-28T12:30:21.305Z,22.13
2022-09-28T12:32:52.032Z,22.38
2022-09-28T12:35:28.821Z,22.91
2022-09-28T12:38:21.514Z,23.38
2022-09-28T12:40:54.603Z,23.05
2022-09-28T12:43:34.459Z,22.96
2022-09-28T12:46:32.614Z,22.79
2022-09-28T12:50:36.628Z,22.44
2022-09-28T12:52:30.329Z,21.89
2022-09-28T12:55:24.886Z,21.92
2022-09-28T12:58:01.421Z,21.68
2022-09-28T13:00:35.864Z,21.41
2022-09-28T13:03:31.559Z,21.55
2022-09-28T13:06:22.820Z,21.45
2022-09-28T13:09:02.035Z,21.11
2022-09-28T13:11:34.716Z,20.74
2022-09-28T13:14:26.843Z,21.16
2022-09-28T13:17:00.628Z,20.90
2022-09-28T13:19:34.778Z,20.97
2022-09-28T13:22:14.737Z,20.87
2022-09-28T13:24:44.337Z,20.14
2022-09-28T13:27:16.083Z,20.28
2022-09-28T13:29:45.805Z,19.94
2022-09-28T13:32:15.216Z,19.74
2022-09-28T13:34:43.404Z,19.49
2022-09-28T13:37:23.077Z,19.94
2022-09-28T13:39:53.248Z,19.54
2022-09-28T13:42:51.208Z,19.87
2022-09-28T13:45:58.981Z,19.55
2022-09-28T13:48:38.526Z,19.38
2022-09-28T13:51:13.614Z,19.17
2022-09-28T13:54:04.547Z,19.07
2022-09-28T13:56:38.941Z,18.89
2022-09-28T13:59:15.124Z,18.76
2022-09-28T14:01:47.116Z,18.71
2022-09-28T14:04:21.015Z,18.81
2022-09-28T14:06:55.503Z,18.66
2022-09-28T14:09:41.240Z,18.94
2022-09-28T14:12:29.725Z,18.96
2022-09-28T14:14:58.365Z,18.26
2022-09-28T14:17:51.387Z,18.81
2022-09-28T14:20:25.096Z,18.46
2022-09-28T14:23:25.423Z,18.81
2022-09-28T14:26:05.798Z,18.58
2022-09-28T14:28:45.626Z,18.44
2022-09-28T14:31:19.069Z,18.22
2022-09-28T14:33:56.938Z,18.51
2022-09-28T14:36:46.641Z,18.24
2022-09-28T14:39:38.808Z,18.35
2022-09-28T14:42:12.875Z,18.24
2022-09-28T14:45:19.191Z,18.61
2022-09-28T14:48:20.524Z,18.47
2022-09-28T14:50:50.110Z,18.07
2022-09-28T14:53:22.279Z,18.18
2022-09-28T14:55:52.496Z,17.86
2022-09-28T14:58:24.257Z,17.99
2022-09-28T15:00:57.981Z,18.18
2022-09-28T15:03:28.614Z,17.92
2022-09-28T15:05:56.857Z,17.65
2022-09-28T15:08:37.658Z,18.23
2022-09-28T15:11:06.320Z,17.83
2022-09-28T15:13:34.586Z,17.69
2022-09-28T15:16:09.941Z,17.94
2022-09-28T15:19:08.066Z,18.27
2022-09-28T15:21:37.967Z,17.62
2022-09-28T15:24:31.631Z,18.11
2022-09-28T15:27:00.051Z,17.52
2022-09-28T15:29:31.752Z,17.54
2022-09-28T15:32:00.195Z,17.54
2022-09-28T15:34:47.171Z,17.62
2022-09-28T15:37:16.712Z,17.81
2022-09-28T15:39:48.413Z,17.91
2022-09-28T15:42:18.601Z,17.86
2022-09-28T15:45:02.576Z,18.34
2022-09-28T15:47:32.121Z,17.75
2022-09-28T15:50:01.959Z,17.68
2022-09-28T15:52:36.633Z,17.34
2022-09-28T15:55:19.351Z,17.01
2022-09-28T15:57:48.462Z,16.43
2022-09-28T16:00:28.891Z,16.57
2022-09-28T16:03:01.738Z,16.22
2022-09-28T16:05:34.211Z,15.98
2022-09-28T16:08:03.559Z,15.86
2022-09-28T16:10:35.966Z,15.76
2022-09-28T16:13:17.229Z,15.95
2022-09-28T16:15:45.394Z,16.30
2022-09-28T16:18:19.207Z,15.77
2022-09-28T16:20:49.734Z,15.24
2022-09-28T16:23:22.571Z,15.15
2022-09-28T16:25:56.755Z,15.16
2022-09-28T16:28:49.188Z,15.11
2022-09-28T16:31:27.970Z,15.17
2022-09-28T16:33:59.109Z,14.67
2022-09-28T16:36:29.955Z,15.62
2022-09-28T16:38:58.352Z,14.76
2022-09-28T16:41:29.016Z,15.24
2022-09-28T16:44:01.158Z,15.24
2022-09-28T16:46:32.544Z,15.13
2022-09-28T16:49:03.350Z,14.89
2022-09-28T16:51:31.460Z,14.82
2022-09-28T16:54:19.133Z,15.22
2022-09-28T16:56:48.806Z,15.41
2022-09-28T16:59:17.052Z,15.34
2022-09-28T17:01:45.291Z,15.31
2022-09-28T17:04:13.629Z,15.38
2022-09-28T17:06:43.623Z,15.40
2022-09-28T17:09:13.948Z,15.86
2022-09-28T17:11:42.277Z,15.59
2022-09-28T17:14:11.957Z,15.90
2022-09-28T17:17:06.771Z,15.62
2022-09-28T17:19:29.941Z,15.64
2022-09-28T17:21:58.347Z,15.66
2022-09-28T17:24:26.658Z,15.68
2022-09-28T17:26:55.183Z,15.65
2022-09-28T17:29:24.698Z,15.97
2022-09-28T17:31:53.103Z,15.57
2022-09-28T17:34:21.811Z,15.66
2022-09-28T17:36:50.201Z,15.73
2022-09-28T17:39:19.639Z,15.95
2022-09-28T17:41:48.214Z,15.74
2022-09-28T17:44:16.766Z,15.68
2022-09-28T17:46:49.242Z,16.06
2022-09-28T17:49:18.996Z,15.68
2022-09-28T17:51:47.239Z,15.42
2022-09-28T17:54:19.454Z,15.40
2022-09-28T17:56:47.924Z,15.34
2022-09-28T17:59:18.700Z,15.60
2022-09-28T18:01:48.566Z,15.59
2022-09-28T18:04:33.768Z,15.42
2022-09-28T18:07:05.441Z,15.52
2022-09-28T18:09:33.888Z,15.56
2022-09-28T18:12:05.421Z,15.96
2022-09-28T18:14:36.002Z,15.62
2022-09-28T18:17:05.968Z,15.94
2022-09-28T18:19:34.211Z,15.69
2022-09-28T18:22:02.636Z,15.63
2022-09-28T18:24:32.677Z,15.59
2022-09-28T18:27:01.165Z,15.63
2022-09-28T18:29:33.038Z,15.61
2022-09-28T18:32:02.730Z,15.51
2022-09-28T18:34:32.476Z,15.78
2022-09-28T18:37:00.753Z,15.57
2022-09-28T18:39:29.280Z,15.71
2022-09-28T18:41:58.169Z,15.88
2022-09-28T18:44:26.916Z,15.81
2022-09-28T18:46:55.591Z,15.75
2022-09-28T18:49:24.468Z,15.84
2022-09-28T18:51:54.301Z,16.01
2022-09-28T18:54:23.017Z,15.75
2022-09-28T18:56:51.421Z,15.57
2022-09-28T18:59:20.053Z,15.71
2022-09-28T19:01:48.504Z,15.61
2022-09-28T19:04:16.925Z,15.65
2022-09-28T19:06:47.598Z,15.77
2022-09-28T19:09:19.877Z,16.12
2022-09-28T19:11:48.334Z,15.79
2022-09-28T19:14:17.202Z,15.87
2022-09-28T19:16:46.296Z,15.74
2022-09-28T19:19:19.413Z,15.98
2022-09-28T19:21:48.146Z,15.43
2022-09-28T19:24:19.344Z,15.80
2022-09-28T19:26:47.574Z,15.36
2022-09-28T19:29:16.294Z,15.36
2022-09-28T19:31:44.666Z,15.31
2022-09-28T19:34:14.234Z,15.33
2022-09-28T19:36:43.144Z,15.39
2022-09-28T19:39:14.666Z,15.75
2022-09-28T19:41:47.931Z,16.40
2022-09-28T19:44:24.784Z,15.88
2022-09-28T19:46:54.751Z,15.64
2022-09-28T19:49:24.176Z,15.68
2022-09-28T19:52:13.761Z,15.67
2022-09-28T19:54:44.975Z,15.66
2022-09-28T19:57:16.053Z,15.81
2022-09-28T19:59:44.377Z,16.32
2022-09-28T20:02:13.458Z,15.45
2022-09-28T20:04:41.567Z,15.27
2022-09-28T20:07:10.868Z,15.35
2022-09-28T20:09:39.448Z,15.29
2022-09-28T20:12:07.592Z,15.25
2022-09-28T20:14:39.658Z,15.52
2022-09-28T20:17:08.875Z,15.28
2022-09-28T20:19:37.114Z,15.18
2022-09-28T20:22:05.532Z,15.12
2022-09-28T20:24:33.941Z,15.18
2022-09-28T20:27:03.030Z,15.21
2022-09-28T20:29:33.580Z,15.35
2022-09-28T20:32:04.340Z,15.50
2022-09-28T20:34:33.613Z,15.10
2022-09-28T20:37:02.084Z,15.04
2022-09-28T20:39:30.377Z,15.03
2022-09-28T20:41:58.740Z,15.07
2022-09-28T20:44:26.861Z,14.96
2022-09-28T20:46:56.361Z,15.04
2022-09-28T20:49:27.273Z,15.28
2022-09-28T20:51:55.466Z,14.96
2022-09-28T20:54:23.468Z,14.95
2022-09-28T20:56:51.835Z,14.99
2022-09-28T20:59:20.346Z,14.94
2022-09-28T21:01:48.571Z,15.00
2022-09-28T21:04:16.895Z,15.00
2022-09-28T21:06:46.434Z,15.29
2022-09-28T21:09:14.650Z,14.85
2022-09-28T21:11:43.139Z,14.87
2022-09-28T21:14:11.245Z,14.86
2022-09-28T21:16:40.146Z,15.07
2022-09-28T21:19:08.413Z,14.87
2022-09-28T21:21:36.441Z,14.88
2022-09-28T21:24:06.162Z,15.14
2022-09-28T21:26:35.269Z,14.91
2022-09-28T21:29:05.072Z,15.14
2022-09-28T21:31:38.366Z,15.06
2022-09-28T21:34:06.944Z,14.83
2022-09-28T21:36:35.142Z,14.80
2022-09-28T21:39:07.007Z,14.86
2022-09-28T21:41:39.545Z,15.19
2022-09-28T21:44:08.233Z,15.03
2022-09-28T21:46:37.080Z,15.00
2022-09-28T21:49:07.579Z,15.09
2022-09-28T21:51:36.128Z,14.87
2022-09-28T21:54:04.355Z,14.90
2022-09-28T21:56:32.705Z,14.85
2022-09-28T21:59:02.566Z,15.20
2022-09-28T22:01:31.419Z,14.84
2022-09-28T22:03:59.858Z,14.78
2022-09-28T22:06:29.162Z,14.99
2022-09-28T22:08:57.938Z,14.91
2022-09-28T22:11:28.083Z,14.94
2022-09-28T22:13:57.492Z,14.97
2022-09-28T22:16:29.350Z,15.15
2022-09-28T22:18:58.022Z,14.75
2022-09-28T22:21:30.436Z,14.91
2022-09-28T22:24:01.268Z,14.86
2022-09-28T22:26:31.823Z,14.90
2022-09-28T22:29:01.434Z,14.76
2022-09-28T22:31:32.642Z,14.99
2022-09-28T22:34:00.769Z,14.54
2022-09-28T22:36:29.755Z,14.53
2022-09-28T22:38:58.599Z,14.58
2022-09-28T22:41:26.999Z,14.48
2022-09-28T22:43:55.767Z,14.63
2022-09-28T22:46:25.221Z,14.65
2022-09-28T22:48:56.087Z,14.80
2022-09-28T22:51:26.042Z,14.71
2022-09-28T22:53:54.266Z,14.42
2022-09-28T22:56:22.407Z,14.40
2022-09-28T22:58:50.856Z,14.41
2022-09-28T23:01:21.185Z,14.65
2022-09-28T23:03:50.371Z,14.55
2022-09-28T23:06:22.140Z,14.71
2022-09-28T23:08:51.906Z,14.47
2022-09-28T23:11:20.782Z,14.44
2022-09-28T23:13:52.558Z,14.79
2022-09-28T23:16:23.466Z,14.36
2022-09-28T23:18:52.568Z,14.27
2022-09-28T23:21:24.493Z,14.59
2022-09-28T23:23:54.421Z,14.35
2022-09-28T23:26:24.796Z,14.45
2022-09-28T23:28:53.477Z,14.21
2022-09-28T23:31:23.168Z,14.24
2022-09-28T23:33:51.510Z,14.09
2022-09-28T23:36:21.019Z,14.11
2022-09-28T23:38:49.462Z,14.10
2022-09-28T23:41:17.518Z,14.03
2022-09-28T23:43:45.740Z,14.01
2022-09-28T23:46:19.636Z,13.95
2022-09-28T23:48:48.862Z,14.01
2022-09-28T23:51:17.168Z,14.02
2022-09-28T23:53:46.800Z,14.34
2022-09-28T23:56:15.586Z,14.08
2022-09-28T23:58:44.033Z,13.89
